Terminal Aerodrome Forecast
Issued by NWS

Current Version | Previous Version | Text Only | Print | Product List | Glossary On
Versions: 1 2 3 4 5 6 7 8 9 10 11 12 13 14 15 16 17 18
190
FTUS41 KBTV 280521
TAFRUT
TAF
KRUT 280521Z 2806/0106 22005KT P6SM BKN080
     FM281400 15007KT P6SM BKN080 BKN200
     FM282200 14010G18KT P6SM VCSH OVC050
     FM010000 15012G20KT 5SM -SHRA BR OVC035=

USA.gov is the U.S. government's official web portal to all federal, state and local government web resources and services.